Time;durP1;ratioP1;P1;durP2;ratioP2;P2;SDS_P1;SDS_P2;PMS_P1;PMS_P2;Temp;Humidity;BMP_temperature;BMP_pressure;BME280_temperature;BME280_humidity;BME280_pressure;Samples;Min_cycle;Max_cycle;Signal;HPM_P1;HPM_P2
2022/06/22 00:02:19;;;;;;;;;;;20.60;79.50;;;;;;5050313;28;19916;-60
2022/06/22 00:04:53;;;;;;;;;;;20.60;79.30;;;;;;5050294;28;19913;-59
2022/06/22 00:07:19;;;;;;;;;;;20.50;79.70;;;;;;5056627;28;19912;-60
2022/06/22 00:09:46;;;;;;;;;;;20.40;79.90;;;;;;5032796;28;20042;-61
2022/06/22 00:12:24;;;;;;;;;;;20.40;80.20;;;;;;5055325;28;20414;-60
2022/06/22 00:14:50;;;;;;;;;;;20.40;79.80;;;;;;5051269;28;19912;-62
2022/06/22 00:17:24;;;;;;;;;;;20.40;80.50;;;;;;5049734;28;19917;-61
2022/06/22 00:19:49;;;;;;;;;;;20.30;80.40;;;;;;5050278;28;19913;-61
2022/06/22 00:22:16;;;;;;;;;;;20.30;80.70;;;;;;5050889;28;20401;-60
2022/06/22 00:24:42;;;;;;;;;;;20.30;80.90;;;;;;5049822;28;20426;-61
2022/06/22 00:27:26;;;;;;;;;;;20.30;80.60;;;;;;5049879;28;20066;-60
2022/06/22 00:30:07;;;;;;;;;;;20.30;80.60;;;;;;5050583;28;19908;-60
2022/06/22 00:32:33;;;;;;;;;;;20.30;80.60;;;;;;5050006;28;19920;-61
2022/06/22 00:35:18;;;;;;;;;;;20.20;81.20;;;;;;5050575;28;19913;-61
2022/06/22 00:37:44;;;;;;;;;;;20.20;82.10;;;;;;5056316;28;20404;-60
2022/06/22 00:40:14;;;;;;;;;;;20.20;81.40;;;;;;5050936;28;19995;-61
2022/06/22 00:42:50;;;;;;;;;;;20.20;81.40;;;;;;5053623;28;19913;-59
2022/06/22 00:45:23;;;;;;;;;;;20.00;82.10;;;;;;5032346;28;19932;-61
2022/06/22 00:47:56;;;;;;;;;;;20.00;82.00;;;;;;5033284;28;19915;-62
2022/06/22 00:50:24;;;;;;;;;;;20.00;82.60;;;;;;5050386;28;19921;-61
2022/06/22 00:52:55;;;;;;;;;;;20.00;82.10;;;;;;5052990;28;19924;-61
2022/06/22 00:55:31;;;;;;;;;;;19.90;82.30;;;;;;5049368;28;19916;-61
2022/06/22 00:58:35;;;;;;;;;;;20.00;82.70;;;;;;5049935;28;20378;-60
2022/06/22 01:01:06;;;;;;;;;;;19.90;83.00;;;;;;4973860;28;20024;-61
2022/06/22 01:03:38;;;;;;;;;;;19.90;82.70;;;;;;4970700;28;19985;-62
2022/06/22 01:06:14;;;;;;;;;;;19.80;83.30;;;;;;4971137;28;20021;-63
2022/06/22 01:08:46;;;;;;;;;;;19.70;83.70;;;;;;4952729;28;19921;-61
2022/06/22 01:14:09;;;;;;;;;;;19.70;83.70;;;;;;4968965;28;19953;-60
2022/06/22 01:16:37;;;;;;;;;;;19.60;84.20;;;;;;4968437;28;19925;-62
2022/06/22 01:19:11;;;;;;;;;;;19.60;84.20;;;;;;4962353;28;19914;-63
2022/06/22 01:21:39;;;;;;;;;;;19.60;84.20;;;;;;4963132;28;19989;-59
2022/06/22 01:24:08;;;;;;;;;;;19.60;84.50;;;;;;4970548;28;19958;-61
2022/06/22 01:26:33;;;;;;;;;;;19.50;84.60;;;;;;4969875;28;19916;-60
2022/06/22 01:29:00;;;;;;;;;;;19.50;84.40;;;;;;4968150;28;19914;-61
2022/06/22 01:31:27;;;;;;;;;;;19.40;85.00;;;;;;4982640;28;19932;-59
2022/06/22 01:33:54;;;;;;;;;;;19.40;84.30;;;;;;5055029;28;19913;-60
2022/06/22 01:36:22;;;;;;;;;;;19.40;84.30;;;;;;5050255;28;19986;-59
2022/06/22 01:38:48;;;;;;;;;;;19.40;85.00;;;;;;5051175;28;19915;-61
2022/06/22 01:41:32;;;;;;;;;;;19.30;84.90;;;;;;5058195;28;19916;-60
2022/06/22 01:44:01;;;;;;;;;;;19.40;85.00;;;;;;5050726;28;19956;-60
2022/06/22 01:46:44;;;;;;;;;;;19.30;84.80;;;;;;5053181;28;19917;-60
2022/06/22 01:49:22;;;;;;;;;;;19.30;85.20;;;;;;5053048;28;20422;-60
2022/06/22 01:51:50;;;;;;;;;;;19.20;85.10;;;;;;5055728;28;19928;-60
2022/06/22 01:54:25;;;;;;;;;;;19.20;85.20;;;;;;5055943;28;19997;-61
2022/06/22 01:57:09;;;;;;;;;;;19.20;85.40;;;;;;5058077;28;20003;-60
2022/06/22 01:59:54;;;;;;;;;;;19.20;84.80;;;;;;5037207;28;19967;-59
2022/06/22 02:02:27;;;;;;;;;;;19.20;85.00;;;;;;5055477;28;19916;-61
2022/06/22 02:04:58;;;;;;;;;;;19.20;85.00;;;;;;5052892;28;20390;-59
2022/06/22 02:07:45;;;;;;;;;;;19.10;84.40;;;;;;5053612;28;19963;-60
2022/06/22 02:10:21;;;;;;;;;;;19.10;85.30;;;;;;5048295;28;19913;-61
2022/06/22 02:12:55;;;;;;;;;;;19.10;84.90;;;;;;5055159;28;20403;-60
2022/06/22 02:15:39;;;;;;;;;;;19.20;85.10;;;;;;5050314;28;20000;-61
2022/06/22 02:18:08;;;;;;;;;;;19.10;85.10;;;;;;5056555;28;19983;-61
2022/06/22 02:20:35;;;;;;;;;;;19.10;84.90;;;;;;5053854;28;19912;-62
2022/06/22 02:23:09;;;;;;;;;;;19.10;85.60;;;;;;5039099;28;19963;-60
2022/06/22 02:25:38;;;;;;;;;;;19.10;85.60;;;;;;5047588;28;19950;-61
2022/06/22 02:28:03;;;;;;;;;;;19.10;85.40;;;;;;5055394;28;19913;-61
2022/06/22 02:30:29;;;;;;;;;;;19.10;85.80;;;;;;5058734;28;19928;-61
2022/06/22 02:32:55;;;;;;;;;;;19.10;85.60;;;;;;5057483;28;20011;-63
2022/06/22 02:35:21;;;;;;;;;;;19.10;85.50;;;;;;5056563;28;19916;-60
2022/06/22 02:37:50;;;;;;;;;;;19.10;85.50;;;;;;5020688;28;19958;-61
2022/06/22 02:40:18;;;;;;;;;;;19.10;85.70;;;;;;5052141;28;19921;-60
2022/06/22 02:45:28;;;;;;;;;;;19.10;85.50;;;;;;5056467;28;19975;-60
2022/06/22 02:48:12;;;;;;;;;;;19.10;85.70;;;;;;5054976;28;20378;-61
2022/06/22 02:50:41;;;;;;;;;;;19.10;85.70;;;;;;5051714;28;19913;-58
2022/06/22 02:53:12;;;;;;;;;;;19.10;86.20;;;;;;5059564;28;20360;-61
2022/06/22 02:55:38;;;;;;;;;;;19.10;86.80;;;;;;5054245;28;19912;-59
2022/06/22 02:58:21;;;;;;;;;;;19.20;87.00;;;;;;5053778;28;19917;-61
2022/06/22 03:00:46;;;;;;;;;;;19.10;87.10;;;;;;5039156;28;20286;-59
2022/06/22 03:03:13;;;;;;;;;;;19.10;87.00;;;;;;5052502;28;19935;-61
2022/06/22 03:05:39;;;;;;;;;;;19.10;86.90;;;;;;5055476;28;20362;-61
2022/06/22 03:08:05;;;;;;;;;;;19.10;87.00;;;;;;5052775;28;19916;-61
2022/06/22 03:10:36;;;;;;;;;;;19.10;87.20;;;;;;5052021;28;20026;-62
2022/06/22 03:13:01;;;;;;;;;;;19.10;87.80;;;;;;5057325;28;19919;-61
2022/06/22 03:15:30;;;;;;;;;;;19.00;87.40;;;;;;5057684;28;19995;-60
2022/06/22 03:17:57;;;;;;;;;;;19.10;87.60;;;;;;5055572;28;19909;-60
2022/06/22 03:20:24;;;;;;;;;;;19.10;87.40;;;;;;5052236;28;19909;-61
2022/06/22 03:22:55;;;;;;;;;;;19.10;87.50;;;;;;5053383;28;20003;-62
2022/06/22 03:25:40;;;;;;;;;;;19.10;87.30;;;;;;5054965;28;20290;-62
2022/06/22 03:28:09;;;;;;;;;;;19.10;87.50;;;;;;5051215;28;19939;-61
2022/06/22 03:30:51;;;;;;;;;;;19.10;87.50;;;;;;5051250;28;19967;-62
2022/06/22 03:33:21;;;;;;;;;;;19.10;87.70;;;;;;5050933;28;19917;-61
2022/06/22 03:35:49;;;;;;;;;;;19.00;87.70;;;;;;5052045;28;20004;-61
2022/06/22 03:38:20;;;;;;;;;;;19.00;87.70;;;;;;5052055;28;19917;-61
2022/06/22 03:40:51;;;;;;;;;;;19.00;87.90;;;;;;5050398;28;19917;-61
2022/06/22 03:43:20;;;;;;;;;;;19.00;88.20;;;;;;5052896;28;19924;-59
2022/06/22 03:45:58;;;;;;;;;;;18.90;88.40;;;;;;5051585;28;19913;-60
2022/06/22 03:48:32;;;;;;;;;;;18.80;88.50;;;;;;5050776;28;20294;-61
2022/06/22 03:51:05;;;;;;;;;;;18.80;88.60;;;;;;5048004;28;19921;-60
2022/06/22 03:53:36;;;;;;;;;;;18.80;88.50;;;;;;5033674;28;19963;-61
2022/06/22 03:56:05;;;;;;;;;;;18.80;88.40;;;;;;5059213;28;19912;-62
2022/06/22 03:58:30;;;;;;;;;;;18.80;88.60;;;;;;5050537;28;19912;-62
2022/06/22 04:00:57;;;;;;;;;;;18.80;88.70;;;;;;5050815;28;19919;-60
2022/06/22 04:03:25;;;;;;;;;;;18.80;88.60;;;;;;5050956;28;20346;-61
2022/06/22 04:05:55;;;;;;;;;;;18.80;88.30;;;;;;5054821;28;19915;-61
2022/06/22 04:08:32;;;;;;;;;;;18.80;88.20;;;;;;5050599;28;20283;-59
2022/06/22 04:11:01;;;;;;;;;;;18.90;88.10;;;;;;5049807;28;19927;-60
2022/06/22 04:13:39;;;;;;;;;;;18.90;88.30;;;;;;5050120;28;19913;-61
2022/06/22 04:16:13;;;;;;;;;;;18.90;88.40;;;;;;5050031;28;19917;-60
2022/06/22 04:18:42;;;;;;;;;;;18.90;88.50;;;;;;5036520;28;19913;-62
2022/06/22 04:21:09;;;;;;;;;;;18.90;88.40;;;;;;5051710;28;19909;-60
2022/06/22 04:23:40;;;;;;;;;;;18.90;88.40;;;;;;5049921;28;19992;-61
2022/06/22 04:26:10;;;;;;;;;;;18.90;88.50;;;;;;5050322;28;19917;-59
2022/06/22 04:28:36;;;;;;;;;;;18.90;88.30;;;;;;5052446;28;19920;-61
2022/06/22 04:31:04;;;;;;;;;;;18.90;88.60;;;;;;5055922;28;19944;-61
2022/06/22 04:33:42;;;;;;;;;;;18.80;88.70;;;;;;5049971;28;20004;-61
2022/06/22 04:36:10;;;;;;;;;;;18.80;89.00;;;;;;5035738;28;20340;-60
2022/06/22 04:38:38;;;;;;;;;;;18.70;88.90;;;;;;5049069;28;19909;-63
2022/06/22 04:41:16;;;;;;;;;;;18.70;89.10;;;;;;5051759;28;19912;-60
2022/06/22 04:43:41;;;;;;;;;;;18.70;89.20;;;;;;5052118;28;19913;-62
2022/06/22 04:46:08;;;;;;;;;;;18.70;89.30;;;;;;5049841;28;19982;-62
2022/06/22 04:48:38;;;;;;;;;;;18.60;89.20;;;;;;5057078;28;19917;-63
2022/06/22 04:51:06;;;;;;;;;;;18.60;89.00;;;;;;5051851;28;19929;-60
2022/06/22 04:53:38;;;;;;;;;;;18.60;89.20;;;;;;5055633;28;20492;-59
2022/06/22 04:56:10;;;;;;;;;;;18.70;89.50;;;;;;5050188;28;19913;-62
2022/06/22 04:58:44;;;;;;;;;;;18.70;89.80;;;;;;5050143;28;19913;-60
2022/06/22 05:01:13;;;;;;;;;;;18.70;89.80;;;;;;5051834;28;19996;-60
2022/06/22 05:03:38;;;;;;;;;;;18.60;89.70;;;;;;5055585;28;19968;-59
2022/06/22 05:06:10;;;;;;;;;;;18.60;89.90;;;;;;5050114;28;19968;-61
2022/06/22 05:08:40;;;;;;;;;;;18.60;89.80;;;;;;5050594;28;19909;-60
2022/06/22 05:11:11;;;;;;;;;;;18.70;90.00;;;;;;5051094;28;19928;-61
2022/06/22 05:13:42;;;;;;;;;;;18.60;89.90;;;;;;5054223;28;19913;-60
2022/06/22 05:16:09;;;;;;;;;;;18.60;89.90;;;;;;5055520;28;20007;-61
2022/06/22 05:18:36;;;;;;;;;;;18.60;90.00;;;;;;5056267;28;19917;-60
2022/06/22 05:21:10;;;;;;;;;;;18.60;90.10;;;;;;5054118;28;19909;-61
2022/06/22 05:23:35;;;;;;;;;;;18.60;90.10;;;;;;5058529;28;20294;-60
2022/06/22 05:26:03;;;;;;;;;;;18.60;90.00;;;;;;5053378;28;19924;-62
2022/06/22 05:28:43;;;;;;;;;;;18.50;90.10;;;;;;5054021;28;19913;-61
2022/06/22 05:31:12;;;;;;;;;;;18.50;90.10;;;;;;5058374;28;20432;-62
2022/06/22 05:33:39;;;;;;;;;;;18.50;90.60;;;;;;5052244;28;19963;-61
2022/06/22 05:36:06;;;;;;;;;;;18.60;90.30;;;;;;5054202;28;20480;-62
2022/06/22 05:38:33;;;;;;;;;;;18.60;90.20;;;;;;5054190;28;19909;-61
2022/06/22 05:41:04;;;;;;;;;;;18.60;90.40;;;;;;5053684;28;19920;-62
2022/06/22 05:43:31;;;;;;;;;;;18.60;90.20;;;;;;5046921;28;19917;-59
2022/06/22 05:45:57;;;;;;;;;;;18.60;90.30;;;;;;5058287;28;19913;-61
2022/06/22 05:48:26;;;;;;;;;;;18.60;90.40;;;;;;5057776;28;19913;-59
2022/06/22 05:51:15;;;;;;;;;;;18.60;90.40;;;;;;5051061;28;19920;-66
2022/06/22 05:53:52;;;;;;;;;;;18.60;90.30;;;;;;4974970;28;20084;-63
2022/06/22 05:56:18;;;;;;;;;;;18.50;90.40;;;;;;4972072;28;19914;-62
2022/06/22 05:58:51;;;;;;;;;;;18.50;90.30;;;;;;4972428;28;19953;-63
2022/06/22 06:01:39;;;;;;;;;;;18.40;90.60;;;;;;4972428;28;19952;-61
2022/06/22 06:04:09;;;;;;;;;;;18.50;90.50;;;;;;4963697;28;20014;-61
2022/06/22 06:06:38;;;;;;;;;;;18.40;90.80;;;;;;4960595;28;19918;-61
2022/06/22 06:09:05;;;;;;;;;;;18.40;90.60;;;;;;4972253;28;20383;-60
2022/06/22 06:11:44;;;;;;;;;;;18.30;90.70;;;;;;4975968;28;19925;-60
2022/06/22 06:14:30;;;;;;;;;;;18.20;90.60;;;;;;4971747;28;20479;-60
2022/06/22 06:16:58;;;;;;;;;;;18.30;90.70;;;;;;4971583;28;19917;-60
2022/06/22 06:19:28;;;;;;;;;;;18.30;90.80;;;;;;4972595;28;19961;-59
2022/06/22 06:21:56;;;;;;;;;;;18.20;90.80;;;;;;4970946;28;19914;-60
2022/06/22 06:27:34;;;;;;;;;;;18.20;90.80;;;;;;4971062;28;20439;-61
2022/06/22 06:27:34;;;;;;;;;;;18.20;90.70;;;;;;4967477;28;20418;-60
2022/06/22 06:30:00;;;;;;;;;;;18.20;90.80;;;;;;4985673;28;20378;-59
2022/06/22 06:32:25;;;;;;;;;;;18.20;90.80;;;;;;5052778;28;19924;-61
2022/06/22 06:35:13;;;;;;;;;;;18.20;90.90;;;;;;5051505;28;19912;-59
2022/06/22 06:37:44;;;;;;;;;;;18.10;91.00;;;;;;5051641;28;19912;-58
2022/06/22 06:40:12;;;;;;;;;;;18.10;90.90;;;;;;5045979;28;19923;-59
2022/06/22 06:42:47;;;;;;;;;;;18.10;91.10;;;;;;5053004;28;19912;-58
2022/06/22 06:45:15;;;;;;;;;;;18.10;91.10;;;;;;5034400;28;20000;-58
2022/06/22 06:47:43;;;;;;;;;;;18.10;91.20;;;;;;5058217;28;19919;-59
2022/06/22 06:50:23;;;;;;;;;;;18.10;91.20;;;;;;5033956;28;20390;-58
2022/06/22 06:52:54;;;;;;;;;;;18.10;91.20;;;;;;5051833;28;19920;-58
2022/06/22 06:55:27;;;;;;;;;;;18.00;91.30;;;;;;5049587;28;20013;-58
2022/06/22 06:57:56;;;;;;;;;;;18.00;91.30;;;;;;5051697;28;19935;-59
2022/06/22 07:00:22;;;;;;;;;;;18.00;91.40;;;;;;5052782;28;20009;-59
2022/06/22 07:02:47;;;;;;;;;;;18.10;91.30;;;;;;5052932;28;19970;-57
2022/06/22 07:05:14;;;;;;;;;;;18.10;91.20;;;;;;5054535;28;19913;-57
2022/06/22 07:07:49;;;;;;;;;;;18.10;91.20;;;;;;5052444;28;20062;-58
2022/06/22 07:10:17;;;;;;;;;;;18.20;91.40;;;;;;5051878;28;19920;-59
2022/06/22 07:12:46;;;;;;;;;;;18.20;91.20;;;;;;5055210;28;19913;-57
2022/06/22 07:15:16;;;;;;;;;;;18.20;91.20;;;;;;5051974;28;19921;-58
2022/06/22 07:17:42;;;;;;;;;;;18.20;91.20;;;;;;5053799;28;19990;-59
2022/06/22 07:20:19;;;;;;;;;;;18.20;91.20;;;;;;5051856;28;20002;-58
2022/06/22 07:22:53;;;;;;;;;;;18.30;91.30;;;;;;5051066;28;19921;-58
2022/06/22 07:25:30;;;;;;;;;;;18.30;91.20;;;;;;5057913;28;20298;-58
2022/06/22 07:28:05;;;;;;;;;;;18.30;91.30;;;;;;5046146;28;19913;-58
2022/06/22 07:30:42;;;;;;;;;;;18.30;91.20;;;;;;5055366;28;20299;-60
2022/06/22 07:33:11;;;;;;;;;;;18.30;91.20;;;;;;5051815;28;19909;-58
2022/06/22 07:35:42;;;;;;;;;;;18.30;91.20;;;;;;5054017;28;20007;-58
2022/06/22 07:38:34;;;;;;;;;;;18.30;91.30;;;;;;5050505;28;20294;-59
2022/06/22 07:43:48;;;;;;;;;;;18.40;91.30;;;;;;4990215;28;19973;-59
2022/06/22 07:46:26;;;;;;;;;;;18.40;91.30;;;;;;4988542;28;19914;-59
2022/06/22 07:48:54;;;;;;;;;;;18.40;91.30;;;;;;4993742;28;19921;-60
2022/06/22 07:51:22;;;;;;;;;;;18.40;91.40;;;;;;4989505;28;20004;-58
2022/06/22 07:53:51;;;;;;;;;;;18.50;91.40;;;;;;4992773;28;20037;-56
2022/06/22 07:56:34;;;;;;;;;;;18.50;91.30;;;;;;4989614;28;19921;-59
2022/06/22 07:59:07;;;;;;;;;;;18.60;91.30;;;;;;4989697;28;19914;-58
2022/06/22 08:01:36;;;;;;;;;;;18.70;91.40;;;;;;4989214;28;19910;-58
2022/06/22 08:04:02;;;;;;;;;;;18.80;91.30;;;;;;4988677;28;19930;-59
2022/06/22 08:06:47;;;;;;;;;;;18.80;91.20;;;;;;4994056;28;20376;-58
2022/06/22 08:09:13;;;;;;;;;;;18.90;91.30;;;;;;4988823;28;19921;-59
2022/06/22 08:11:41;;;;;;;;;;;19.00;91.30;;;;;;4992998;28;19969;-58
2022/06/22 08:14:25;;;;;;;;;;;19.10;91.10;;;;;;4988859;28;19918;-57
2022/06/22 08:16:52;;;;;;;;;;;19.10;91.10;;;;;;4994870;28;19929;-58
2022/06/22 08:19:19;;;;;;;;;;;19.20;90.90;;;;;;5051486;28;19939;-59
2022/06/22 08:21:47;;;;;;;;;;;19.30;91.00;;;;;;5050347;28;19921;-59
2022/06/22 08:24:15;;;;;;;;;;;19.40;90.80;;;;;;5055699;28;19912;-59
2022/06/22 08:26:41;;;;;;;;;;;19.40;91.00;;;;;;5051882;28;19999;-58
2022/06/22 08:29:06;;;;;;;;;;;19.50;90.70;;;;;;5051838;28;19909;-58
2022/06/22 08:31:58;;;;;;;;;;;19.60;90.60;;;;;;5051858;28;19927;-58
2022/06/22 08:34:29;;;;;;;;;;;19.60;90.60;;;;;;5046993;28;20003;-58
2022/06/22 08:36:57;;;;;;;;;;;19.70;90.60;;;;;;5051675;28;19966;-58
2022/06/22 08:39:29;;;;;;;;;;;19.80;90.60;;;;;;5045706;28;20401;-59
2022/06/22 08:42:03;;;;;;;;;;;19.90;90.60;;;;;;5050854;28;19913;-58
2022/06/22 08:44:36;;;;;;;;;;;20.00;90.80;;;;;;5049464;28;20398;-60
2022/06/22 08:47:17;;;;;;;;;;;20.10;90.60;;;;;;5049968;28;19916;-59
2022/06/22 08:49:45;;;;;;;;;;;20.20;90.20;;;;;;5049744;28;19936;-58
2022/06/22 08:52:10;;;;;;;;;;;20.30;90.40;;;;;;5049583;28;19917;-58
2022/06/22 08:54:55;;;;;;;;;;;20.30;90.20;;;;;;5049776;28;19919;-58
2022/06/22 08:57:23;;;;;;;;;;;20.40;90.20;;;;;;5049798;28;19909;-59
2022/06/22 09:00:07;;;;;;;;;;;20.40;89.70;;;;;;5050329;28;20440;-58
2022/06/22 09:02:32;;;;;;;;;;;20.40;90.00;;;;;;5050326;28;19925;-58
2022/06/22 09:05:03;;;;;;;;;;;20.30;89.50;;;;;;5049444;28;19913;-58
2022/06/22 09:07:32;;;;;;;;;;;20.30;89.30;;;;;;5049454;28;20000;-58
2022/06/22 09:10:06;;;;;;;;;;;20.30;89.40;;;;;;5049538;28;19916;-59
2022/06/22 09:12:41;;;;;;;;;;;20.30;89.50;;;;;;5047094;28;20015;-59
2022/06/22 09:15:33;;;;;;;;;;;20.30;89.70;;;;;;5049889;28;19909;-58
2022/06/22 09:17:59;;;;;;;;;;;20.30;89.40;;;;;;5047242;28;19909;-59
2022/06/22 09:20:43;;;;;;;;;;;20.40;89.30;;;;;;5050401;28;20114;-59
2022/06/22 09:23:19;;;;;;;;;;;20.40;89.70;;;;;;5049676;28;19913;-59
2022/06/22 09:25:48;;;;;;;;;;;20.50;89.80;;;;;;5049355;28;19913;-59
2022/06/22 09:28:27;;;;;;;;;;;20.50;89.90;;;;;;5049213;28;19923;-58
2022/06/22 09:31:07;;;;;;;;;;;20.50;89.80;;;;;;5049555;28;19924;-58
2022/06/22 09:33:35;;;;;;;;;;;20.60;90.10;;;;;;5049512;28;19912;-58
2022/06/22 09:36:19;;;;;;;;;;;20.60;90.20;;;;;;5052792;28;20309;-59
2022/06/22 09:38:52;;;;;;;;;;;20.60;89.80;;;;;;5050110;28;19909;-59
2022/06/22 09:41:17;;;;;;;;;;;20.70;89.90;;;;;;5049408;28;19913;-59
2022/06/22 09:43:52;;;;;;;;;;;20.70;89.40;;;;;;5049006;28;19919;-59
2022/06/22 09:46:21;;;;;;;;;;;20.60;89.30;;;;;;5049079;28;19917;-58
2022/06/22 09:48:55;;;;;;;;;;;20.60;89.30;;;;;;5049112;28;19921;-59
2022/06/22 09:51:33;;;;;;;;;;;20.60;89.60;;;;;;5048556;28;20461;-58
2022/06/22 09:54:01;;;;;;;;;;;20.70;89.10;;;;;;5050021;28;19916;-59
2022/06/22 09:56:45;;;;;;;;;;;20.80;90.10;;;;;;5049935;28;19956;-58
2022/06/22 09:59:19;;;;;;;;;;;20.80;89.60;;;;;;5049047;28;19924;-59
2022/06/22 10:01:51;;;;;;;;;;;20.90;89.90;;;;;;5052194;28;19924;-59
2022/06/22 10:04:16;;;;;;;;;;;21.00;89.90;;;;;;5052976;28;19921;-58
2022/06/22 10:07:01;;;;;;;;;;;21.10;90.00;;;;;;5052657;28;20576;-59
2022/06/22 10:09:58;;;;;;;;;;;21.20;90.10;;;;;;5052849;28;20008;-59
2022/06/22 10:12:43;;;;;;;;;;;21.30;90.00;;;;;;4987733;28;20013;-58
2022/06/22 10:15:17;;;;;;;;;;;21.30;89.40;;;;;;4990767;28;20479;-66
2022/06/22 10:17:51;;;;;;;;;;;21.40;89.70;;;;;;4983299;28;19914;-65
2022/06/22 10:20:26;;;;;;;;;;;21.50;90.00;;;;;;4990352;28;20077;-66
2022/06/22 10:22:58;;;;;;;;;;;21.60;89.70;;;;;;4986829;28;19922;-66
2022/06/22 10:25:42;;;;;;;;;;;21.60;89.80;;;;;;4989222;28;19914;-66
2022/06/22 10:28:33;;;;;;;;;;;21.70;90.10;;;;;;4985863;28;19917;-65
2022/06/22 10:30:59;;;;;;;;;;;21.80;90.10;;;;;;4948881;29;20010;-64
2022/06/22 10:33:38;;;;;;;;;;;22.00;90.20;;;;;;4948973;29;20045;-65
2022/06/22 10:36:27;;;;;;;;;;;22.10;90.50;;;;;;4945564;29;20013;-65
2022/06/22 10:39:09;;;;;;;;;;;22.20;90.40;;;;;;4948898;29;20016;-65
2022/06/22 10:47:31;;;;;;;;;;;22.50;90.40;;;;;;4956610;28;20418;-66
2022/06/22 10:50:03;;;;;;;;;;;22.50;90.50;;;;;;4971570;28;20552;-63
2022/06/22 10:52:47;;;;;;;;;;;22.60;90.50;;;;;;4988267;28;19992;-66
2022/06/22 10:55:28;;;;;;;;;;;22.60;90.60;;;;;;4986802;28;19928;-66
2022/06/22 10:58:12;;;;;;;;;;;22.60;90.40;;;;;;4987173;28;20490;-66
2022/06/22 11:00:58;;;;;;;;;;;22.70;90.40;;;;;;4987954;28;19968;-65
2022/06/22 11:03:32;;;;;;;;;;;22.70;90.60;;;;;;4977126;28;19929;-64
2022/06/22 11:05:58;;;;;;;;;;;22.80;90.70;;;;;;4989891;28;20386;-65
2022/06/22 11:08:42;;;;;;;;;;;22.90;90.50;;;;;;5033512;28;19920;-65
2022/06/22 11:11:26;;;;;;;;;;;23.00;90.70;;;;;;5046407;28;19927;-66
2022/06/22 11:13:57;;;;;;;;;;;23.00;91.30;;;;;;5047794;28;19913;-64
2022/06/22 11:16:29;;;;;;;;;;;23.20;90.90;;;;;;5049234;28;19917;-65
2022/06/22 11:19:04;;;;;;;;;;;23.30;91.10;;;;;;5051663;28;19919;-65
2022/06/22 11:21:30;;;;;;;;;;;23.40;91.50;;;;;;5049641;28;20362;-66
2022/06/22 11:24:14;;;;;;;;;;;23.50;91.00;;;;;;5050089;28;19920;-67
2022/06/22 11:32:39;;;;;;;;;;;23.60;90.90;;;;;;5049146;28;19932;-66
2022/06/22 11:35:23;;;;;;;;;;;23.50;90.90;;;;;;5047343;28;19952;-59
2022/06/22 11:38:06;;;;;;;;;;;23.60;91.10;;;;;;5048804;28;20367;-60
2022/06/22 11:40:50;;;;;;;;;;;23.70;91.00;;;;;;5049146;28;19921;-59
2022/06/22 11:43:15;;;;;;;;;;;23.70;91.00;;;;;;5046622;28;20015;-60
2022/06/22 11:45:50;;;;;;;;;;;23.80;91.10;;;;;;5048828;28;19996;-59
2022/06/22 11:48:35;;;;;;;;;;;23.80;90.90;;;;;;5045076;28;19921;-60
2022/06/22 11:51:08;;;;;;;;;;;23.70;90.90;;;;;;5046705;28;20014;-60
2022/06/22 11:53:34;;;;;;;;;;;23.70;91.10;;;;;;5049329;28;20008;-60
2022/06/22 11:56:01;;;;;;;;;;;23.70;91.10;;;;;;5048623;28;20388;-60
2022/06/22 11:58:36;;;;;;;;;;;23.80;91.10;;;;;;5030236;28;20314;-59
2022/06/22 12:01:20;;;;;;;;;;;23.80;91.00;;;;;;5048412;28;20370;-60
2022/06/22 12:03:45;;;;;;;;;;;23.80;91.00;;;;;;5047276;28;20008;-60
2022/06/22 12:06:17;;;;;;;;;;;23.70;91.10;;;;;;5047758;28;19999;-59
2022/06/22 12:09:01;;;;;;;;;;;23.80;91.20;;;;;;5047962;28;19958;-59
2022/06/22 12:11:29;;;;;;;;;;;23.80;91.20;;;;;;5047135;28;19929;-59
2022/06/22 12:16:44;;;;;;;;;;;23.80;91.20;;;;;;5047764;28;19967;-59
2022/06/22 12:19:28;;;;;;;;;;;23.80;91.10;;;;;;5049511;28;20442;-60
2022/06/22 12:22:12;;;;;;;;;;;23.80;91.20;;;;;;5047518;28;19917;-61
2022/06/22 12:24:40;;;;;;;;;;;23.90;91.20;;;;;;5048496;28;19913;-60
2022/06/22 12:27:26;;;;;;;;;;;23.90;91.20;;;;;;5048150;28;20019;-60
2022/06/22 12:29:58;;;;;;;;;;;23.90;91.20;;;;;;5049264;28;20390;-59
2022/06/22 12:32:30;;;;;;;;;;;24.00;91.40;;;;;;5048102;28;19971;-59
2022/06/22 12:35:06;;;;;;;;;;;24.00;91.20;;;;;;5046806;28;19935;-60
2022/06/22 12:37:40;;;;;;;;;;;24.10;91.40;;;;;;5030057;28;20352;-59
2022/06/22 12:40:08;;;;;;;;;;;24.20;91.50;;;;;;5045469;28;19983;-60
2022/06/22 12:42:34;;;;;;;;;;;24.30;91.50;;;;;;5048364;28;19963;-60
2022/06/22 12:45:11;;;;;;;;;;;24.30;91.40;;;;;;5048252;28;19913;-58
2022/06/22 12:47:52;;;;;;;;;;;24.30;91.20;;;;;;5049439;28;20440;-60
2022/06/22 12:50:42;;;;;;;;;;;24.40;91.00;;;;;;5047257;28;20359;-60
2022/06/22 12:53:20;;;;;;;;;;;24.30;91.00;;;;;;5046180;28;20379;-60
2022/06/22 12:55:49;;;;;;;;;;;24.30;91.00;;;;;;5046994;28;19963;-59
2022/06/22 12:58:17;;;;;;;;;;;24.30;90.70;;;;;;5047419;28;19919;-60
2022/06/22 13:00:43;;;;;;;;;;;24.20;90.80;;;;;;5048124;28;20456;-58
2022/06/22 13:03:14;;;;;;;;;;;24.20;90.90;;;;;;4983840;28;1807960;-60
2022/06/22 13:05:40;;;;;;;;;;;24.30;91.00;;;;;;5049977;28;19913;-60
2022/06/22 13:08:08;;;;;;;;;;;24.40;91.10;;;;;;5031865;28;19970;-59
2022/06/22 13:10:42;;;;;;;;;;;24.40;90.90;;;;;;5047562;28;19951;-59
2022/06/22 13:13:18;;;;;;;;;;;24.50;91.00;;;;;;5046963;28;19917;-60
2022/06/22 13:15:46;;;;;;;;;;;24.50;91.10;;;;;;5048874;28;19916;-59
2022/06/22 13:18:27;;;;;;;;;;;24.60;91.10;;;;;;5031927;28;20039;-58
2022/06/22 13:20:56;;;;;;;;;;;24.70;91.00;;;;;;5050283;28;19964;-59
2022/06/22 13:23:27;;;;;;;;;;;24.60;90.60;;;;;;5047130;28;19975;-60
2022/06/22 13:25:59;;;;;;;;;;;24.60;90.80;;;;;;5047649;28;20392;-60
2022/06/22 13:28:24;;;;;;;;;;;24.60;91.10;;;;;;5047302;28;19919;-61
2022/06/22 13:30:58;;;;;;;;;;;24.70;91.10;;;;;;5046552;28;19917;-59
2022/06/22 13:33:23;;;;;;;;;;;24.80;91.20;;;;;;5047369;28;19917;-58
2022/06/22 13:36:12;;;;;;;;;;;24.80;91.10;;;;;;5051415;28;19919;-59
2022/06/22 13:38:41;;;;;;;;;;;24.80;91.20;;;;;;5052483;28;19971;-60
2022/06/22 13:41:12;;;;;;;;;;;24.80;90.90;;;;;;5051299;28;19923;-59
2022/06/22 13:43:37;;;;;;;;;;;24.80;91.10;;;;;;5034440;28;20405;-59
2022/06/22 13:46:09;;;;;;;;;;;24.80;91.10;;;;;;5032384;28;19913;-59
2022/06/22 13:48:43;;;;;;;;;;;24.90;91.40;;;;;;5050297;28;19917;-59
2022/06/22 13:51:24;;;;;;;;;;;25.00;91.00;;;;;;5050128;28;19920;-59
2022/06/22 13:54:13;;;;;;;;;;;25.00;91.00;;;;;;5052705;28;19917;-60
2022/06/22 13:56:38;;;;;;;;;;;24.90;90.90;;;;;;5053475;28;20259;-60
2022/06/22 13:59:11;;;;;;;;;;;25.00;90.80;;;;;;5051568;28;20087;-59
2022/06/22 14:01:43;;;;;;;;;;;25.00;90.60;;;;;;5050800;28;20370;-59
2022/06/22 14:04:17;;;;;;;;;;;24.90;90.70;;;;;;5048572;28;20375;-60
2022/06/22 14:06:49;;;;;;;;;;;24.90;90.90;;;;;;5051822;28;19917;-59
2022/06/22 14:09:19;;;;;;;;;;;24.90;90.80;;;;;;5033259;28;20012;-60
2022/06/22 14:11:57;;;;;;;;;;;24.80;91.10;;;;;;5051609;28;20334;-60
2022/06/22 14:14:28;;;;;;;;;;;24.90;91.10;;;;;;5051393;28;20002;-60
2022/06/22 14:16:59;;;;;;;;;;;24.90;91.10;;;;;;5049616;28;19925;-59
2022/06/22 14:19:33;;;;;;;;;;;25.00;91.20;;;;;;5048561;28;19913;-60
2022/06/22 14:22:00;;;;;;;;;;;25.00;91.20;;;;;;5050311;28;19917;-59
2022/06/22 14:24:28;;;;;;;;;;;25.10;91.30;;;;;;5050322;28;19943;-60
2022/06/22 14:27:17;;;;;;;;;;;25.20;91.00;;;;;;5053726;28;19928;-62
2022/06/22 14:30:05;;;;;;;;;;;25.20;91.00;;;;;;4951372;28;19946;-60
2022/06/22 14:32:33;;;;;;;;;;;25.30;90.60;;;;;;4950187;29;19922;-58
2022/06/22 14:35:02;;;;;;;;;;;25.30;90.70;;;;;;4949855;29;19919;-61
2022/06/22 14:37:46;;;;;;;;;;;25.40;90.50;;;;;;4948442;28;19923;-60
2022/06/22 14:40:17;;;;;;;;;;;25.30;90.30;;;;;;4947583;28;19914;-61
2022/06/22 14:42:54;;;;;;;;;;;25.30;90.00;;;;;;4950578;28;19918;-60
2022/06/22 14:45:23;;;;;;;;;;;25.30;89.90;;;;;;4949205;28;19954;-61
2022/06/22 14:47:52;;;;;;;;;;;25.30;89.60;;;;;;4949606;28;19914;-60
2022/06/22 14:50:33;;;;;;;;;;;25.30;89.80;;;;;;4949285;28;19922;-60
2022/06/22 14:53:07;;;;;;;;;;;25.30;89.30;;;;;;4950072;28;19937;-61
2022/06/22 14:55:43;;;;;;;;;;;25.30;89.30;;;;;;4949340;29;19994;-60
2022/06/22 14:58:19;;;;;;;;;;;25.30;89.00;;;;;;4948303;28;20046;-60
2022/06/22 15:00:48;;;;;;;;;;;25.20;88.80;;;;;;4948807;28;19915;-60
2022/06/22 15:03:26;;;;;;;;;;;25.10;88.80;;;;;;4948785;28;19930;-60
2022/06/22 15:05:58;;;;;;;;;;;25.00;88.90;;;;;;4962529;28;19917;-60
2022/06/22 15:08:34;;;;;;;;;;;25.10;89.20;;;;;;5050337;28;19913;-61
2022/06/22 15:12:56;;;;;;;;;;;25.00;89.00;;;;;;5049885;28;19932;-60
2022/06/22 15:13:51;;;;;;;;;;;24.90;89.00;;;;;;5046509;28;19912;-60